This is the latest recevied weather packets stored in our database for station/object AI9F. If no packets are shown the sender has not sent any weather packets the latest 10 day(s).
| Time | Temp. | Humidity | Pressure | Rain* | Wind** | Luminosity | Snow |
|---|---|---|---|---|---|---|---|
| 1777913961 | 23.89° C | 50% | 1007.5 hPa | 0 mm | - | 439 W/m² | - |
| 1777913658 | 23.89° C | 50% | 1007.5 hPa | 0 mm | - | 623 W/m² | - |
| 1777913355 | 24.44° C | 51% | 1008 hPa | 0 mm | - | 548 W/m² | - |
| 1777913051 | 23.89° C | 52% | 1008.1 hPa | 0 mm | - | 508 W/m² | - |
| 1777912747 | 24.44° C | 49% | 1008.1 hPa | 0 mm | - | 634 W/m² | - |
| 1777912443 | 23.89° C | 52% | 1008.1 hPa | 0 mm | - | 649 W/m² | - |
| 1777912139 | 23.33° C | 53% | 1007.9 hPa | 0 mm | - | 650 W/m² | - |
| 1777911835 | 23.33° C | 53% | 1008.2 hPa | 0 mm | - | 571 W/m² | - |
| 1777911533 | 22.78° C | 54% | 1008.4 hPa | 0 mm | - | 599 W/m² | - |
| 1777911229 | 22.78° C | 56% | 1008.4 hPa | 0 mm | - | 411 W/m² | - |
| 1777910926 | 22.22° C | 59% | 1008.3 hPa | 0 mm | - | 346 W/m² | - |
| 1777910623 | 22.22° C | 55% | 1008.5 hPa | 0 mm | - | 576 W/m² | - |
| 1777910320 | 22.22° C | 56% | 1008.5 hPa | 0 mm | - | 385 W/m² | - |
| 1777910017 | 21.67° C | 59% | 1008.4 hPa | 0 mm | - | 477 W/m² | - |
| 1777909714 | 21.67° C | 61% | 1008.4 hPa | 0 mm | - | 342 W/m² | - |
| 1777909411 | 21.11° C | 65% | 1008.3 hPa | 0 mm | - | 364 W/m² | - |
| 1777909110 | 20.56° C | 64% | 1008.4 hPa | 0 mm | - | 275 W/m² | - |
| 1777908807 | 20.56° C | 64% | 1008.6 hPa | 0 mm | - | 251 W/m² | - |
| 1777908503 | 20.56° C | 63% | 1008.4 hPa | 0 mm | - | 246 W/m² | - |
| 1777908201 | 20.56° C | 62% | 1008.3 hPa | 0 mm | - | 236 W/m² | - |
| 1777907896 | 20.56° C | 65% | 1008.3 hPa | 0 mm | - | 211 W/m² | - |
| 1777907592 | 20° C | 68% | 1008.2 hPa | 0 mm | - | 211 W/m² | - |
| 1777907288 | 20.56° C | 65% | 1008.3 hPa | 0 mm | - | 234 W/m² | - |
| 1777906985 | 20° C | 64% | 1008.3 hPa | 0 mm | - | 178 W/m² | - |
| 1777906683 | 20° C | 64% | 1008.3 hPa | 0 mm | - | 162 W/m² | - |
* Rain latest hour (hover to see other rain measurements)
** Current wind speed in m/s (hover to see current wind gust speed)